Laura B — WDI9376 — position and weather

sailwx.info

Track history (hours):
 
Tides and Currents Weather Stations Pressure Air Temp Water Temp Dewpoint Dewpoint Depression Visibility Wind Speed Wind Dir Waves Ship Positions

Laura B

Owner: G & H TOWING COMPANY, Galveston, TX. More information available from US FCC via Universal Licensing System and Coast Guard Vessel Documentation Center.

Last reported at 2017-Sep-30 00:06 UTC. Time now 2017-Oct-17 22:36 UTC.
Position N 29°30' W 094°53'.
Warning: this ship's position is 17 days out of date.

Length 24 m; draft 4.9 m.

Type: Tug. MMSI: 367748038.

Date/timePositionNaut miles runAvg speedWind from/ knotsBaromVisibWave heightAir tempDewpointWater temp
2017-Sep-30 00:06N 29°30' W 094°53'111.5
2017-Sep-30 00:00N 29°31' W 094°53'510.0
2017-Sep-29 23:30N 29°36' W 094°57'3 6.7
2017-Sep-29 23:00N 29°37' W 095°00'0 0.0
2017-Sep-29 22:30N 29°37' W 095°00'1 2.3
2017-Sep-29 22:00N 29°37' W 095°02'0 0.2
2017-Sep-29 21:30N 29°37' W 095°01'1 2.3
2017-Sep-29 21:01N 29°37' W 095°00'1 1.7
2017-Sep-29 20:30N 29°37' W 094°59'1 1.6
2017-Sep-29 20:00N 29°37' W 094°60'0 0.5
2017-Sep-29 19:30N 29°37' W 095°00'1 1.6
2017-Sep-29 19:00N 29°37' W 095°01'1 1.4
2017-Sep-29 18:30N 29°37' W 095°00'  
2017-Sep-27 04:35N 29°45' W 095°10'0 0.0
2017-Sep-27 04:30N 29°45' W 095°10'0 0.0
2017-Sep-27 03:08N 29°45' W 095°10'0 0.0
2017-Sep-27 02:59N 29°45' W 095°10'0 0.0
2017-Sep-27 02:26N 29°45' W 095°10'0 0.0
2017-Sep-27 01:20N 29°45' W 095°10'0 0.0
2017-Sep-27 00:49N 29°45' W 095°10'0 0.1
2017-Sep-26 18:37N 29°45' W 095°11'0 0.2
2017-Sep-26 16:21N 29°45' W 095°10'3 4.0
2017-Sep-26 15:36N 29°44' W 095°07'0 0.0
2017-Sep-26 13:45N 29°44' W 095°07'0 0.0
2017-Sep-26 13:21N 29°44' W 095°07'0 0.0
2017-Sep-26 12:42N 29°44' W 095°07'2 0.4
2017-Sep-26 08:40N 29°46' W 095°05'0 1.1
2017-Sep-26 08:26N 29°46' W 095°05'2 0.2
2017-Sep-26 00:11N 29°45' W 095°07'1 1.4
2017-Sep-25 23:18N 29°44' W 095°08'2 0.2
2017-Sep-25 15:06N 29°45' W 095°06'0 1.1
2017-Sep-25 15:00N 29°45' W 095°06'0 0.0
2017-Sep-25 14:17N 29°45' W 095°06'1 0.1
2017-Sep-25 08:25N 29°44' W 095°07'0 0.0
2017-Sep-24 12:45N 29°44' W 095°07'1 2.6
2017-Sep-24 12:29N 29°44' W 095°07'0 0.1
2017-Sep-24 11:30N 29°44' W 095°07'1 1.7
2017-Sep-24 10:58N 29°44' W 095°08'3 2.5
2017-Sep-24 09:57N 29°45' W 095°11'1 1.2
2017-Sep-24 09:28N 29°45' W 095°12'1 3.3
2017-Sep-24 09:00N 29°45' W 095°10'0 0.2
2017-Sep-24 07:27N 29°45' W 095°10'1 0.9
2017-Sep-24 06:39N 29°45' W 095°11'0 0.2
2017-Sep-24 06:28N 29°45' W 095°11'4 0.8
2017-Sep-24 01:32N 29°44' W 095°07'1 0.1
2017-Sep-23 20:38N 29°45' W 095°06'0 0.1
2017-Sep-23 20:30N 29°45' W 095°06'0 0.1
2017-Sep-23 20:00N 29°45' W 095°06'6 0.1
2017-Sep-22 00:17N 29°44' W 095°13'2 7.5
2017-Sep-21 23:58N 29°44' W 095°16'3 0.6
2017-Sep-21 18:12N 29°44' W 095°12'0 0.6
2017-Sep-21 17:49N 29°44' W 095°12'2 3.3
2017-Sep-21 17:13N 29°45' W 095°10'1 2.2
2017-Sep-21 16:59N 29°45' W 095°10'0 0.0
2017-Sep-21 15:03N 29°45' W 095°10'5 3.7
2017-Sep-21 13:35N 29°44' W 095°16'2 2.1
2017-Sep-21 12:33N 29°43' W 095°14'1 0.5
2017-Sep-21 10:54N 29°43' W 095°15'5 0.7
2017-Sep-21 03:59N 29°45' W 095°10'3 0.6
2017-Sep-20 21:50N 29°45' W 095°06'1 0.2
2017-Sep-20 17:22N 29°44' W 095°07'1 1.5
2017-Sep-20 17:00N 29°44' W 095°07'0 0.0
2017-Sep-20 16:30N 29°44' W 095°07'1 0.1
2017-Sep-20 02:51N 29°45' W 095°06'  
Track history (hours):
 
Tides and Currents Weather Stations Pressure Air Temp Water Temp Dewpoint Dewpoint Depression Visibility Wind Speed Wind Dir Waves Ship Positions

Laura B

Owner: G & H TOWING COMPANY, Galveston, TX. More information available from US FCC via Universal Licensing System and Coast Guard Vessel Documentation Center.

Last reported at 2017-Sep-30 00:06 UTC. Time now 2017-Oct-17 22:36 UTC.
Position N 29°30' W 094°53'.
Warning: this ship's position is 17 days out of date.

Length 24 m; draft 4.9 m.

Type: Tug. MMSI: 367748038.

Date/timePositionNaut miles runAvg speedWind from/ knotsBaromVisibWave heightAir tempDewpointWater temp
2017-Sep-30 00:06N 29°30' W 094°53'111.5
2017-Sep-30 00:00N 29°31' W 094°53'510.0
2017-Sep-29 23:30N 29°36' W 094°57'3 6.7
2017-Sep-29 23:00N 29°37' W 095°00'0 0.0
2017-Sep-29 22:30N 29°37' W 095°00'1 2.3
2017-Sep-29 22:00N 29°37' W 095°02'0 0.2
2017-Sep-29 21:30N 29°37' W 095°01'1 2.3
2017-Sep-29 21:01N 29°37' W 095°00'1 1.7
2017-Sep-29 20:30N 29°37' W 094°59'1 1.6
2017-Sep-29 20:00N 29°37' W 094°60'0 0.5
2017-Sep-29 19:30N 29°37' W 095°00'1 1.6
2017-Sep-29 19:00N 29°37' W 095°01'1 1.4
2017-Sep-29 18:30N 29°37' W 095°00'  
2017-Sep-27 04:35N 29°45' W 095°10'0 0.0
2017-Sep-27 04:30N 29°45' W 095°10'0 0.0
2017-Sep-27 03:08N 29°45' W 095°10'0 0.0
2017-Sep-27 02:59N 29°45' W 095°10'0 0.0
2017-Sep-27 02:26N 29°45' W 095°10'0 0.0
2017-Sep-27 01:20N 29°45' W 095°10'0 0.0
2017-Sep-27 00:49N 29°45' W 095°10'0 0.1
2017-Sep-26 18:37N 29°45' W 095°11'0 0.2
2017-Sep-26 16:21N 29°45' W 095°10'3 4.0
2017-Sep-26 15:36N 29°44' W 095°07'0 0.0
2017-Sep-26 13:45N 29°44' W 095°07'0 0.0
2017-Sep-26 13:21N 29°44' W 095°07'0 0.0
2017-Sep-26 12:42N 29°44' W 095°07'2 0.4
2017-Sep-26 08:40N 29°46' W 095°05'0 1.1
2017-Sep-26 08:26N 29°46' W 095°05'2 0.2
2017-Sep-26 00:11N 29°45' W 095°07'1 1.4
2017-Sep-25 23:18N 29°44' W 095°08'2 0.2
2017-Sep-25 15:06N 29°45' W 095°06'0 1.1
2017-Sep-25 15:00N 29°45' W 095°06'0 0.0
2017-Sep-25 14:17N 29°45' W 095°06'1 0.1
2017-Sep-25 08:25N 29°44' W 095°07'0 0.0
2017-Sep-24 12:45N 29°44' W 095°07'1 2.6
2017-Sep-24 12:29N 29°44' W 095°07'0 0.1
2017-Sep-24 11:30N 29°44' W 095°07'1 1.7
2017-Sep-24 10:58N 29°44' W 095°08'3 2.5
2017-Sep-24 09:57N 29°45' W 095°11'1 1.2
2017-Sep-24 09:28N 29°45' W 095°12'1 3.3
2017-Sep-24 09:00N 29°45' W 095°10'0 0.2
2017-Sep-24 07:27N 29°45' W 095°10'1 0.9
2017-Sep-24 06:39N 29°45' W 095°11'0 0.2
2017-Sep-24 06:28N 29°45' W 095°11'4 0.8
2017-Sep-24 01:32N 29°44' W 095°07'1 0.1
2017-Sep-23 20:38N 29°45' W 095°06'0 0.1
2017-Sep-23 20:30N 29°45' W 095°06'0 0.1
2017-Sep-23 20:00N 29°45' W 095°06'6 0.1
2017-Sep-22 00:17N 29°44' W 095°13'2 7.5
2017-Sep-21 23:58N 29°44' W 095°16'3 0.6
2017-Sep-21 18:12N 29°44' W 095°12'0 0.6
2017-Sep-21 17:49N 29°44' W 095°12'2 3.3
2017-Sep-21 17:13N 29°45' W 095°10'1 2.2
2017-Sep-21 16:59N 29°45' W 095°10'0 0.0
2017-Sep-21 15:03N 29°45' W 095°10'5 3.7
2017-Sep-21 13:35N 29°44' W 095°16'2 2.1
2017-Sep-21 12:33N 29°43' W 095°14'1 0.5
2017-Sep-21 10:54N 29°43' W 095°15'5 0.7
2017-Sep-21 03:59N 29°45' W 095°10'3 0.6
2017-Sep-20 21:50N 29°45' W 095°06'1 0.2
2017-Sep-20 17:22N 29°44' W 095°07'1 1.5
2017-Sep-20 17:00N 29°44' W 095°07'0 0.0
2017-Sep-20 16:30N 29°44' W 095°07'1 0.1
2017-Sep-20 02:51N 29°45' W 095°06'  

Dump ship's entire track history